sensor_id;sensor_type;location;lat;lon;timestamp;P1;durP1;ratioP1;P2;durP2;ratioP2
16520;SDS011;8373;48.110;11.522;2022-10-18T04:01:59;9.43;;;5.73;;
16520;SDS011;8373;48.110;11.522;2022-10-18T04:04:26;22.43;;;6.57;;
16520;SDS011;8373;48.110;11.522;2022-10-18T04:06:53;14.03;;;5.93;;
16520;SDS011;8373;48.110;11.522;2022-10-18T04:09:19;14.40;;;6.43;;
16520;SDS011;8373;48.110;11.522;2022-10-18T04:11:48;10.60;;;6.13;;
16520;SDS011;8373;48.110;11.522;2022-10-18T04:14:15;13.20;;;6.40;;
16520;SDS011;8373;48.110;11.522;2022-10-18T04:16:45;12.23;;;7.00;;
16520;SDS011;8373;48.110;11.522;2022-10-18T04:19:13;15.10;;;6.80;;
16520;SDS011;8373;48.110;11.522;2022-10-18T04:21:40;14.57;;;6.90;;
16520;SDS011;8373;48.110;11.522;2022-10-18T04:24:07;14.33;;;6.47;;
16520;SDS011;8373;48.110;11.522;2022-10-18T04:26:34;11.90;;;6.70;;
16520;SDS011;8373;48.110;11.522;2022-10-18T04:29:01;13.53;;;7.20;;
16520;SDS011;8373;48.110;11.522;2022-10-18T04:31:29;17.60;;;6.57;;
16520;SDS011;8373;48.110;11.522;2022-10-18T04:33:56;12.60;;;6.83;;
16520;SDS011;8373;48.110;11.522;2022-10-18T04:36:24;12.43;;;6.47;;
16520;SDS011;8373;48.110;11.522;2022-10-18T04:38:51;19.20;;;7.10;;
16520;SDS011;8373;48.110;11.522;2022-10-18T04:41:18;19.10;;;7.30;;
16520;SDS011;8373;48.110;11.522;2022-10-18T04:43:45;17.17;;;6.23;;
16520;SDS011;8373;48.110;11.522;2022-10-18T04:46:12;20.53;;;7.03;;
16520;SDS011;8373;48.110;11.522;2022-10-18T04:48:39;16.90;;;7.00;;
16520;SDS011;8373;48.110;11.522;2022-10-18T04:51:06;11.77;;;6.37;;
16520;SDS011;8373;48.110;11.522;2022-10-18T04:53:34;14.23;;;6.13;;
16520;SDS011;8373;48.110;11.522;2022-10-18T04:56:01;16.90;;;6.83;;
16520;SDS011;8373;48.110;11.522;2022-10-18T04:58:28;19.17;;;7.47;;
16520;SDS011;8373;48.110;11.522;2022-10-18T05:00:55;11.23;;;6.60;;
16520;SDS011;8373;48.110;11.522;2022-10-18T05:03:22;15.30;;;6.70;;
16520;SDS011;8373;48.110;11.522;2022-10-18T05:05:49;12.87;;;6.67;;
16520;SDS011;8373;48.110;11.522;2022-10-18T05:08:16;13.40;;;6.83;;
16520;SDS011;8373;48.110;11.522;2022-10-18T05:10:44;12.77;;;7.23;;
16520;SDS011;8373;48.110;11.522;2022-10-18T05:13:12;16.27;;;6.20;;
16520;SDS011;8373;48.110;11.522;2022-10-18T05:15:39;12.03;;;6.37;;
16520;SDS011;8373;48.110;11.522;2022-10-18T05:18:06;10.00;;;6.17;;
16520;SDS011;8373;48.110;11.522;2022-10-18T05:20:33;20.33;;;6.80;;
16520;SDS011;8373;48.110;11.522;2022-10-18T05:23:00;11.77;;;5.97;;
16520;SDS011;8373;48.110;11.522;2022-10-18T05:25:27;15.60;;;6.60;;
16520;SDS011;8373;48.110;11.522;2022-10-18T05:27:55;18.30;;;7.20;;
16520;SDS011;8373;48.110;11.522;2022-10-18T05:30:22;31.60;;;8.50;;
16520;SDS011;8373;48.110;11.522;2022-10-18T05:32:51;20.07;;;9.37;;
16520;SDS011;8373;48.110;11.522;2022-10-18T05:35:17;16.47;;;8.20;;
16520;SDS011;8373;48.110;11.522;2022-10-18T05:37:44;15.67;;;8.30;;
16520;SDS011;8373;48.110;11.522;2022-10-18T05:40:11;42.50;;;14.40;;
16520;SDS011;8373;48.110;11.522;2022-10-18T05:42:38;34.90;;;13.17;;
16520;SDS011;8373;48.110;11.522;2022-10-18T05:45:07;25.20;;;9.97;;
16520;SDS011;8373;48.110;11.522;2022-10-18T05:47:34;25.90;;;8.90;;
16520;SDS011;8373;48.110;11.522;2022-10-18T05:50:02;21.27;;;8.83;;
16520;SDS011;8373;48.110;11.522;2022-10-18T05:52:29;15.13;;;7.23;;
16520;SDS011;8373;48.110;11.522;2022-10-18T05:54:56;24.03;;;7.57;;
16520;SDS011;8373;48.110;11.522;2022-10-18T05:57:23;15.70;;;6.17;;
16520;SDS011;8373;48.110;11.522;2022-10-18T05:59:50;16.60;;;7.00;;
16520;SDS011;8373;48.110;11.522;2022-10-18T06:02:18;17.50;;;7.93;;
16520;SDS011;8373;48.110;11.522;2022-10-18T06:04:45;13.40;;;6.70;;
16520;SDS011;8373;48.110;11.522;2022-10-18T06:07:12;17.47;;;6.97;;
16520;SDS011;8373;48.110;11.522;2022-10-18T06:09:39;14.93;;;7.00;;
16520;SDS011;8373;48.110;11.522;2022-10-18T06:12:06;12.30;;;6.30;;
16520;SDS011;8373;48.110;11.522;2022-10-18T06:14:33;15.53;;;6.50;;
16520;SDS011;8373;48.110;11.522;2022-10-18T06:17:00;14.43;;;6.40;;
16520;SDS011;8373;48.110;11.522;2022-10-18T06:19:28;14.17;;;6.93;;
16520;SDS011;8373;48.110;11.522;2022-10-18T06:21:55;17.67;;;6.67;;
16520;SDS011;8373;48.110;11.522;2022-10-18T06:24:22;17.30;;;7.97;;
16520;SDS011;8373;48.110;11.522;2022-10-18T06:26:49;14.30;;;6.13;;
16520;SDS011;8373;48.110;11.522;2022-10-18T06:29:16;15.87;;;7.67;;
16520;SDS011;8373;48.110;11.522;2022-10-18T06:31:43;13.40;;;6.87;;
16520;SDS011;8373;48.110;11.522;2022-10-18T06:34:10;16.40;;;7.53;;
16520;SDS011;8373;48.110;11.522;2022-10-18T06:36:38;11.70;;;6.60;;
16520;SDS011;8373;48.110;11.522;2022-10-18T06:39:05;14.17;;;7.57;;
16520;SDS011;8373;48.110;11.522;2022-10-18T06:41:32;15.27;;;7.67;;
16520;SDS011;8373;48.110;11.522;2022-10-18T06:43:59;23.40;;;6.57;;
16520;SDS011;8373;48.110;11.522;2022-10-18T06:46:31;21.43;;;6.60;;
16520;SDS011;8373;48.110;11.522;2022-10-18T06:48:58;33.33;;;6.97;;
16520;SDS011;8373;48.110;11.522;2022-10-18T06:51:25;13.77;;;7.03;;
16520;SDS011;8373;48.110;11.522;2022-10-18T06:53:53;15.40;;;6.90;;
16520;SDS011;8373;48.110;11.522;2022-10-18T06:56:20;19.03;;;7.27;;
16520;SDS011;8373;48.110;11.522;2022-10-18T06:58:47;23.50;;;7.37;;
16520;SDS011;8373;48.110;11.522;2022-10-18T07:01:14;15.03;;;6.80;;
16520;SDS011;8373;48.110;11.522;2022-10-18T07:03:42;35.63;;;8.30;;
16520;SDS011;8373;48.110;11.522;2022-10-18T07:06:11;12.90;;;6.93;;
16520;SDS011;8373;48.110;11.522;2022-10-18T07:08:39;12.43;;;6.13;;
16520;SDS011;8373;48.110;11.522;2022-10-18T07:11:09;10.17;;;6.50;;
16520;SDS011;8373;48.110;11.522;2022-10-18T07:13:40;12.30;;;5.80;;
16520;SDS011;8373;48.110;11.522;2022-10-18T07:16:07;15.07;;;6.43;;
16520;SDS011;8373;48.110;11.522;2022-10-18T07:18:36;15.23;;;6.63;;
16520;SDS011;8373;48.110;11.522;2022-10-18T07:21:05;13.87;;;6.80;;
16520;SDS011;8373;48.110;11.522;2022-10-18T07:23:34;19.10;;;6.13;;
16520;SDS011;8373;48.110;11.522;2022-10-18T07:26:11;17.83;;;6.53;;
16520;SDS011;8373;48.110;11.522;2022-10-18T07:28:39;15.50;;;6.23;;
16520;SDS011;8373;48.110;11.522;2022-10-18T07:31:07;18.50;;;6.70;;
16520;SDS011;8373;48.110;11.522;2022-10-18T07:33:35;12.90;;;6.57;;
16520;SDS011;8373;48.110;11.522;2022-10-18T07:36:03;14.60;;;7.07;;
16520;SDS011;8373;48.110;11.522;2022-10-18T07:38:32;14.70;;;6.10;;
16520;SDS011;8373;48.110;11.522;2022-10-18T07:40:59;39.33;;;7.67;;
16520;SDS011;8373;48.110;11.522;2022-10-18T07:43:29;18.20;;;6.93;;
16520;SDS011;8373;48.110;11.522;2022-10-18T07:45:57;13.73;;;6.83;;
16520;SDS011;8373;48.110;11.522;2022-10-18T07:48:27;15.50;;;6.00;;
16520;SDS011;8373;48.110;11.522;2022-10-18T07:50:56;12.33;;;5.87;;
16520;SDS011;8373;48.110;11.522;2022-10-18T07:53:25;13.93;;;8.00;;
16520;SDS011;8373;48.110;11.522;2022-10-18T07:55:55;13.37;;;6.77;;
16520;SDS011;8373;48.110;11.522;2022-10-18T07:58:24;13.13;;;6.27;;
16520;SDS011;8373;48.110;11.522;2022-10-18T08:00:52;12.10;;;6.40;;
16520;SDS011;8373;48.110;11.522;2022-10-18T08:03:19;14.50;;;6.83;;
16520;SDS011;8373;48.110;11.522;2022-10-18T08:05:50;19.27;;;6.50;;
16520;SDS011;8373;48.110;11.522;2022-10-18T08:08:18;12.40;;;6.10;;
16520;SDS011;8373;48.110;11.522;2022-10-18T08:10:46;14.67;;;6.33;;
16520;SDS011;8373;48.110;11.522;2022-10-18T08:13:13;33.53;;;6.70;;
16520;SDS011;8373;48.110;11.522;2022-10-18T08:15:40;14.30;;;6.80;;
16520;SDS011;8373;48.110;11.522;2022-10-18T08:18:09;14.87;;;6.33;;
16520;SDS011;8373;48.110;11.522;2022-10-18T08:20:36;10.90;;;6.03;;
16520;SDS011;8373;48.110;11.522;2022-10-18T08:23:08;13.53;;;6.77;;
16520;SDS011;8373;48.110;11.522;2022-10-18T08:25:35;14.33;;;6.37;;
16520;SDS011;8373;48.110;11.522;2022-10-18T08:28:02;12.20;;;6.10;;
16520;SDS011;8373;48.110;11.522;2022-10-18T08:30:29;15.60;;;7.33;;
16520;SDS011;8373;48.110;11.522;2022-10-18T08:33:04;20.80;;;6.60;;
16520;SDS011;8373;48.110;11.522;2022-10-18T08:35:32;16.17;;;6.20;;
16520;SDS011;8373;48.110;11.522;2022-10-18T08:37:59;14.00;;;6.33;;
16520;SDS011;8373;48.110;11.522;2022-10-18T08:40:26;15.67;;;7.00;;
16520;SDS011;8373;48.110;11.522;2022-10-18T08:43:00;17.33;;;6.23;;
16520;SDS011;8373;48.110;11.522;2022-10-18T08:45:32;12.50;;;6.10;;
16520;SDS011;8373;48.110;11.522;2022-10-18T08:48:02;12.43;;;6.20;;
16520;SDS011;8373;48.110;11.522;2022-10-18T08:50:33;15.23;;;5.97;;
16520;SDS011;8373;48.110;11.522;2022-10-18T08:53:04;12.60;;;6.40;;
16520;SDS011;8373;48.110;11.522;2022-10-18T08:55:40;14.70;;;7.40;;
16520;SDS011;8373;48.110;11.522;2022-10-18T08:58:13;12.30;;;6.87;;
16520;SDS011;8373;48.110;11.522;2022-10-18T09:00:47;15.13;;;6.33;;
16520;SDS011;8373;48.110;11.522;2022-10-18T09:03:23;16.00;;;6.67;;
16520;SDS011;8373;48.110;11.522;2022-10-18T09:06:02;14.63;;;6.70;;
16520;SDS011;8373;48.110;11.522;2022-10-18T09:08:45;13.10;;;6.33;;
16520;SDS011;8373;48.110;11.522;2022-10-18T09:11:43;15.27;;;6.40;;
16520;SDS011;8373;48.110;11.522;2022-10-18T09:17:23;12.03;;;6.00;;
16520;SDS011;8373;48.110;11.522;2022-10-18T09:20:02;19.83;;;6.60;;
16520;SDS011;8373;48.110;11.522;2022-10-18T09:22:45;14.85;;;5.75;;
16520;SDS011;8373;48.110;11.522;2022-10-18T09:25:18;13.57;;;6.30;;
16520;SDS011;8373;48.110;11.522;2022-10-18T09:27:50;15.70;;;6.50;;
16520;SDS011;8373;48.110;11.522;2022-10-18T09:33:10;11.80;;;7.50;;
16520;SDS011;8373;48.110;11.522;2022-10-18T09:35:48;13.47;;;6.03;;
16520;SDS011;8373;48.110;11.522;2022-10-18T09:38:21;12.50;;;6.30;;
16520;SDS011;8373;48.110;11.522;2022-10-18T09:40:52;11.60;;;6.93;;
16520;SDS011;8373;48.110;11.522;2022-10-18T09:43:22;15.13;;;6.63;;
16520;SDS011;8373;48.110;11.522;2022-10-18T09:45:51;25.47;;;6.20;;
16520;SDS011;8373;48.110;11.522;2022-10-18T09:48:20;15.23;;;6.20;;
16520;SDS011;8373;48.110;11.522;2022-10-18T09:50:53;12.07;;;5.90;;
16520;SDS011;8373;48.110;11.522;2022-10-18T09:53:26;10.17;;;6.17;;
16520;SDS011;8373;48.110;11.522;2022-10-18T09:56:02;18.47;;;5.73;;
16520;SDS011;8373;48.110;11.522;2022-10-18T09:58:39;12.17;;;6.13;;
16520;SDS011;8373;48.110;11.522;2022-10-18T10:01:08;18.67;;;6.53;;
16520;SDS011;8373;48.110;11.522;2022-10-18T10:03:38;11.53;;;5.73;;
16520;SDS011;8373;48.110;11.522;2022-10-18T10:06:15;12.15;;;5.85;;
16520;SDS011;8373;48.110;11.522;2022-10-18T10:08:52;11.70;;;5.60;;
16520;SDS011;8373;48.110;11.522;2022-10-18T10:11:26;17.10;;;5.60;;
16520;SDS011;8373;48.110;11.522;2022-10-18T10:14:06;16.27;;;5.97;;
16520;SDS011;8373;48.110;11.522;2022-10-18T10:16:41;14.30;;;5.80;;
16520;SDS011;8373;48.110;11.522;2022-10-18T10:19:18;20.27;;;7.10;;
16520;SDS011;8373;48.110;11.522;2022-10-18T10:21:48;10.87;;;6.03;;
16520;SDS011;8373;48.110;11.522;2022-10-18T10:24:22;14.57;;;7.63;;
16520;SDS011;8373;48.110;11.522;2022-10-18T10:32:12;13.37;;;5.70;;
16520;SDS011;8373;48.110;11.522;2022-10-18T10:34:40;11.63;;;6.13;;
16520;SDS011;8373;48.110;11.522;2022-10-18T10:37:20;16.17;;;6.37;;
16520;SDS011;8373;48.110;11.522;2022-10-18T10:40:05;9.80;;;5.90;;
16520;SDS011;8373;48.110;11.522;2022-10-18T10:48:13;11.37;;;5.60;;
16520;SDS011;8373;48.110;11.522;2022-10-18T10:53:33;12.40;;;6.97;;
16520;SDS011;8373;48.110;11.522;2022-10-18T10:56:05;18.63;;;6.03;;
16520;SDS011;8373;48.110;11.522;2022-10-18T10:58:39;15.07;;;6.23;;
16520;SDS011;8373;48.110;11.522;2022-10-18T11:03:58;9.97;;;5.23;;
16520;SDS011;8373;48.110;11.522;2022-10-18T11:06:31;13.80;;;5.77;;
16520;SDS011;8373;48.110;11.522;2022-10-18T11:09:20;16.30;;;6.20;;
16520;SDS011;8373;48.110;11.522;2022-10-18T11:11:57;12.23;;;5.70;;
16520;SDS011;8373;48.110;11.522;2022-10-18T11:14:29;13.53;;;5.87;;
16520;SDS011;8373;48.110;11.522;2022-10-18T11:17:01;19.83;;;6.60;;
16520;SDS011;8373;48.110;11.522;2022-10-18T11:19:37;14.53;;;6.97;;
16520;SDS011;8373;48.110;11.522;2022-10-18T11:22:11;9.27;;;4.90;;
16520;SDS011;8373;48.110;11.522;2022-10-18T11:24:41;9.90;;;5.20;;
16520;SDS011;8373;48.110;11.522;2022-10-18T11:27:12;12.70;;;5.10;;
16520;SDS011;8373;48.110;11.522;2022-10-18T11:29:47;12.47;;;5.30;;
16520;SDS011;8373;48.110;11.522;2022-10-18T11:32:27;19.70;;;6.60;;
16520;SDS011;8373;48.110;11.522;2022-10-18T11:38:02;9.70;;;5.40;;
16520;SDS011;8373;48.110;11.522;2022-10-18T11:40:43;13.53;;;6.23;;
16520;SDS011;8373;48.110;11.522;2022-10-18T11:43:26;9.60;;;5.63;;
16520;SDS011;8373;48.110;11.522;2022-10-18T11:46:01;12.02;;;5.70;;
16520;SDS011;8373;48.110;11.522;2022-10-18T11:48:47;10.90;;;6.35;;
16520;SDS011;8373;48.110;11.522;2022-10-18T11:51:29;12.73;;;6.25;;
16520;SDS011;8373;48.110;11.522;2022-10-18T11:54:10;9.32;;;4.95;;
16520;SDS011;8373;48.110;11.522;2022-10-18T11:56:50;7.35;;;3.30;;
16520;SDS011;8373;48.110;11.522;2022-10-18T11:59:33;4.28;;;2.08;;
16520;SDS011;8373;48.110;11.522;2022-10-18T12:02:13;2.67;;;1.50;;
16520;SDS011;8373;48.110;11.522;2022-10-18T12:04:59;1.70;;;1.33;;
16520;SDS011;8373;48.110;11.522;2022-10-18T12:07:27;1.13;;;1.10;;
16520;SDS011;8373;48.110;11.522;2022-10-18T12:09:58;1.20;;;1.20;;
16520;SDS011;8373;48.110;11.522;2022-10-18T12:12:27;0.90;;;0.90;;
16520;SDS011;8373;48.110;11.522;2022-10-18T12:15:00;1.10;;;1.10;;
16520;SDS011;8373;48.110;11.522;2022-10-18T12:17:30;1.25;;;1.23;;
16520;SDS011;8373;48.110;11.522;2022-10-18T12:20:03;1.38;;;1.27;;
16520;SDS011;8373;48.110;11.522;2022-10-18T12:22:37;1.70;;;1.60;;
16520;SDS011;8373;48.110;11.522;2022-10-18T12:25:09;1.80;;;1.52;;
16520;SDS011;8373;48.110;11.522;2022-10-18T12:27:39;2.80;;;1.90;;
16520;SDS011;8373;48.110;11.522;2022-10-18T12:30:13;3.55;;;2.25;;
16520;SDS011;8373;48.110;11.522;2022-10-18T12:32:46;3.58;;;2.13;;
16520;SDS011;8373;48.110;11.522;2022-10-18T12:35:16;4.78;;;2.38;;
16520;SDS011;8373;48.110;11.522;2022-10-18T12:37:49;3.20;;;1.73;;
16520;SDS011;8373;48.110;11.522;2022-10-18T12:40:33;5.80;;;2.77;;
16520;SDS011;8373;48.110;11.522;2022-10-18T12:43:06;5.80;;;2.87;;
16520;SDS011;8373;48.110;11.522;2022-10-18T12:45:45;5.87;;;2.80;;
16520;SDS011;8373;48.110;11.522;2022-10-18T12:48:25;7.33;;;3.90;;
16520;SDS011;8373;48.110;11.522;2022-10-18T12:50:59;10.47;;;4.70;;
16520;SDS011;8373;48.110;11.522;2022-10-18T12:53:31;6.33;;;3.30;;
16520;SDS011;8373;48.110;11.522;2022-10-18T13:02:19;11.93;;;5.47;;
16520;SDS011;8373;48.110;11.522;2022-10-18T13:04:54;14.50;;;4.50;;
16520;SDS011;8373;48.110;11.522;2022-10-18T13:07:37;7.50;;;3.50;;
16520;SDS011;8373;48.110;11.522;2022-10-18T13:16:00;10.20;;;4.67;;
16520;SDS011;8373;48.110;11.522;2022-10-18T13:18:35;16.40;;;4.73;;
16520;SDS011;8373;48.110;11.522;2022-10-18T13:21:14;14.13;;;5.73;;
16520;SDS011;8373;48.110;11.522;2022-10-18T13:23:53;10.00;;;5.00;;
16520;SDS011;8373;48.110;11.522;2022-10-18T13:26:40;14.43;;;5.37;;
16520;SDS011;8373;48.110;11.522;2022-10-18T13:29:21;9.30;;;4.97;;
16520;SDS011;8373;48.110;11.522;2022-10-18T13:32:03;13.77;;;5.10;;
16520;SDS011;8373;48.110;11.522;2022-10-18T13:34:44;16.30;;;5.70;;
16520;SDS011;8373;48.110;11.522;2022-10-18T13:37:17;11.43;;;5.50;;
16520;SDS011;8373;48.110;11.522;2022-10-18T13:39:48;12.20;;;5.57;;
16520;SDS011;8373;48.110;11.522;2022-10-18T13:42:26;10.10;;;5.53;;
16520;SDS011;8373;48.110;11.522;2022-10-18T13:51:00;12.63;;;6.07;;
16520;SDS011;8373;48.110;11.522;2022-10-18T13:53:42;16.73;;;7.47;;
16520;SDS011;8373;48.110;11.522;2022-10-18T13:59:31;9.40;;;6.00;;
16520;SDS011;8373;48.110;11.522;2022-10-18T14:02:22;15.77;;;7.40;;
16520;SDS011;8373;48.110;11.522;2022-10-18T14:08:10;19.37;;;7.50;;
16520;SDS011;8373;48.110;11.522;2022-10-18T14:10:44;19.23;;;7.17;;
16520;SDS011;8373;48.110;11.522;2022-10-18T14:13:22;16.67;;;6.63;;
16520;SDS011;8373;48.110;11.522;2022-10-18T14:15:51;13.53;;;6.70;;
16520;SDS011;8373;48.110;11.522;2022-10-18T14:18:24;13.33;;;6.83;;
16520;SDS011;8373;48.110;11.522;2022-10-18T14:20:56;16.13;;;5.70;;
16520;SDS011;8373;48.110;11.522;2022-10-18T14:23:31;13.90;;;5.33;;
16520;SDS011;8373;48.110;11.522;2022-10-18T14:26:07;12.13;;;5.50;;
16520;SDS011;8373;48.110;11.522;2022-10-18T14:28:38;10.20;;;6.10;;
16520;SDS011;8373;48.110;11.522;2022-10-18T14:31:05;14.73;;;6.50;;
16520;SDS011;8373;48.110;11.522;2022-10-18T14:33:39;25.03;;;6.80;;
16520;SDS011;8373;48.110;11.522;2022-10-18T14:36:10;19.47;;;7.00;;
16520;SDS011;8373;48.110;11.522;2022-10-18T14:38:45;19.10;;;6.40;;
16520;SDS011;8373;48.110;11.522;2022-10-18T14:41:20;16.40;;;6.10;;
16520;SDS011;8373;48.110;11.522;2022-10-18T14:43:48;15.60;;;6.03;;
16520;SDS011;8373;48.110;11.522;2022-10-18T14:46:17;13.53;;;6.53;;
16520;SDS011;8373;48.110;11.522;2022-10-18T14:48:54;15.60;;;6.30;;
16520;SDS011;8373;48.110;11.522;2022-10-18T14:51:22;12.27;;;5.70;;
16520;SDS011;8373;48.110;11.522;2022-10-18T14:53:51;13.30;;;6.70;;
16520;SDS011;8373;48.110;11.522;2022-10-18T14:56:21;19.70;;;7.67;;
16520;SDS011;8373;48.110;11.522;2022-10-18T14:58:50;17.00;;;7.07;;
16520;SDS011;8373;48.110;11.522;2022-10-18T15:01:19;16.40;;;6.70;;
16520;SDS011;8373;48.110;11.522;2022-10-18T15:03:49;14.73;;;6.67;;
16520;SDS011;8373;48.110;11.522;2022-10-18T15:06:22;13.93;;;6.40;;
16520;SDS011;8373;48.110;11.522;2022-10-18T15:08:52;9.77;;;6.53;;
16520;SDS011;8373;48.110;11.522;2022-10-18T15:11:20;13.30;;;6.87;;
16520;SDS011;8373;48.110;11.522;2022-10-18T15:13:49;21.60;;;6.60;;
16520;SDS011;8373;48.110;11.522;2022-10-18T15:16:19;19.47;;;6.53;;
16520;SDS011;8373;48.110;11.522;2022-10-18T15:18:59;22.80;;;7.40;;
16520;SDS011;8373;48.110;11.522;2022-10-18T15:21:27;23.20;;;6.40;;
16520;SDS011;8373;48.110;11.522;2022-10-18T15:23:56;14.97;;;6.40;;
16520;SDS011;8373;48.110;11.522;2022-10-18T15:26:44;12.30;;;7.07;;
16520;SDS011;8373;48.110;11.522;2022-10-18T15:29:15;22.97;;;8.03;;
16520;SDS011;8373;48.110;11.522;2022-10-18T15:31:43;10.87;;;6.33;;
16520;SDS011;8373;48.110;11.522;2022-10-18T15:34:14;20.40;;;6.30;;
16520;SDS011;8373;48.110;11.522;2022-10-18T15:36:44;21.67;;;6.90;;
16520;SDS011;8373;48.110;11.522;2022-10-18T15:39:14;14.90;;;6.60;;
16520;SDS011;8373;48.110;11.522;2022-10-18T15:41:47;16.63;;;6.37;;
16520;SDS011;8373;48.110;11.522;2022-10-18T15:44:22;20.37;;;7.20;;
16520;SDS011;8373;48.110;11.522;2022-10-18T15:46:52;19.83;;;6.57;;
16520;SDS011;8373;48.110;11.522;2022-10-18T15:49:46;16.00;;;6.47;;
16520;SDS011;8373;48.110;11.522;2022-10-18T15:52:33;18.60;;;6.60;;
16520;SDS011;8373;48.110;11.522;2022-10-18T15:58:11;18.10;;;6.50;;
16520;SDS011;8373;48.110;11.522;2022-10-18T16:00:42;17.40;;;6.53;;
16520;SDS011;8373;48.110;11.522;2022-10-18T16:03:10;20.33;;;6.37;;
16520;SDS011;8373;48.110;11.522;2022-10-18T16:05:37;13.10;;;6.90;;
16520;SDS011;8373;48.110;11.522;2022-10-18T16:08:05;15.10;;;7.50;;
16520;SDS011;8373;48.110;11.522;2022-10-18T16:10:33;11.20;;;7.00;;
16520;SDS011;8373;48.110;11.522;2022-10-18T16:13:02;15.37;;;6.90;;
16520;SDS011;8373;48.110;11.522;2022-10-18T16:18:04;20.63;;;8.23;;
16520;SDS011;8373;48.110;11.522;2022-10-18T16:20:31;12.73;;;6.87;;
16520;SDS011;8373;48.110;11.522;2022-10-18T16:22:58;15.53;;;7.30;;
16520;SDS011;8373;48.110;11.522;2022-10-18T16:28:16;25.27;;;7.30;;
16520;SDS011;8373;48.110;11.522;2022-10-18T16:36:40;17.93;;;8.23;;
16520;SDS011;8373;48.110;11.522;2022-10-18T16:39:11;18.90;;;8.90;;
16520;SDS011;8373;48.110;11.522;2022-10-18T16:41:40;17.33;;;8.87;;
16520;SDS011;8373;48.110;11.522;2022-10-18T16:44:09;22.80;;;9.53;;
16520;SDS011;8373;48.110;11.522;2022-10-18T16:46:36;17.77;;;9.60;;
16520;SDS011;8373;48.110;11.522;2022-10-18T16:49:03;17.87;;;8.63;;
16520;SDS011;8373;48.110;11.522;2022-10-18T16:51:31;14.33;;;8.23;;
16520;SDS011;8373;48.110;11.522;2022-10-18T16:53:58;17.40;;;8.80;;
16520;SDS011;8373;48.110;11.522;2022-10-18T16:56:26;21.10;;;9.10;;
16520;SDS011;8373;48.110;11.522;2022-10-18T16:58:55;19.63;;;10.10;;
16520;SDS011;8373;48.110;11.522;2022-10-18T17:01:24;16.33;;;8.90;;
16520;SDS011;8373;48.110;11.522;2022-10-18T17:03:52;18.93;;;9.43;;
16520;SDS011;8373;48.110;11.522;2022-10-18T17:06:20;19.77;;;10.20;;
16520;SDS011;8373;48.110;11.522;2022-10-18T17:08:48;12.53;;;8.73;;
16520;SDS011;8373;48.110;11.522;2022-10-18T17:11:16;18.47;;;9.23;;
16520;SDS011;8373;48.110;11.522;2022-10-18T17:13:44;18.20;;;9.20;;
16520;SDS011;8373;48.110;11.522;2022-10-18T17:16:18;13.57;;;8.37;;
16520;SDS011;8373;48.110;11.522;2022-10-18T17:18:49;16.83;;;8.97;;
16520;SDS011;8373;48.110;11.522;2022-10-18T17:21:17;19.30;;;8.60;;
16520;SDS011;8373;48.110;11.522;2022-10-18T17:23:44;20.83;;;9.80;;
16520;SDS011;8373;48.110;11.522;2022-10-18T17:26:12;17.23;;;10.30;;
16520;SDS011;8373;48.110;11.522;2022-10-18T17:28:40;15.83;;;9.97;;
16520;SDS011;8373;48.110;11.522;2022-10-18T17:34:07;15.63;;;10.47;;
16520;SDS011;8373;48.110;11.522;2022-10-18T17:36:34;29.17;;;9.30;;
16520;SDS011;8373;48.110;11.522;2022-10-18T17:39:02;21.37;;;9.93;;
16520;SDS011;8373;48.110;11.522;2022-10-18T17:41:29;21.43;;;10.47;;
16520;SDS011;8373;48.110;11.522;2022-10-18T17:43:56;24.40;;;9.20;;
16520;SDS011;8373;48.110;11.522;2022-10-18T17:46:23;22.43;;;9.00;;
16520;SDS011;8373;48.110;11.522;2022-10-18T17:48:50;29.93;;;10.43;;
16520;SDS011;8373;48.110;11.522;2022-10-18T17:51:19;19.10;;;8.60;;
16520;SDS011;8373;48.110;11.522;2022-10-18T17:53:47;18.37;;;8.87;;
16520;SDS011;8373;48.110;11.522;2022-10-18T17:56:14;26.47;;;8.53;;
16520;SDS011;8373;48.110;11.522;2022-10-18T17:58:41;15.50;;;8.13;;
16520;SDS011;8373;48.110;11.522;2022-10-18T18:01:10;16.30;;;7.50;;
16520;SDS011;8373;48.110;11.522;2022-10-18T18:03:38;15.07;;;8.57;;
16520;SDS011;8373;48.110;11.522;2022-10-18T18:06:12;15.73;;;8.03;;
16520;SDS011;8373;48.110;11.522;2022-10-18T18:08:42;19.43;;;9.43;;
16520;SDS011;8373;48.110;11.522;2022-10-18T18:11:10;15.90;;;9.17;;
16520;SDS011;8373;48.110;11.522;2022-10-18T18:13:37;24.53;;;9.50;;
16520;SDS011;8373;48.110;11.522;2022-10-18T18:16:11;17.63;;;9.13;;
16520;SDS011;8373;48.110;11.522;2022-10-18T18:18:39;24.30;;;9.60;;
16520;SDS011;8373;48.110;11.522;2022-10-18T18:21:06;14.03;;;9.00;;
16520;SDS011;8373;48.110;11.522;2022-10-18T18:23:33;17.63;;;8.43;;
16520;SDS011;8373;48.110;11.522;2022-10-18T18:26:01;17.53;;;8.27;;
16520;SDS011;8373;48.110;11.522;2022-10-18T18:28:29;17.50;;;8.73;;
16520;SDS011;8373;48.110;11.522;2022-10-18T18:30:56;16.67;;;8.10;;
16520;SDS011;8373;48.110;11.522;2022-10-18T18:33:23;16.57;;;8.53;;
16520;SDS011;8373;48.110;11.522;2022-10-18T18:35:53;18.50;;;8.50;;
16520;SDS011;8373;48.110;11.522;2022-10-18T18:38:21;18.67;;;10.60;;
16520;SDS011;8373;48.110;11.522;2022-10-18T18:40:48;19.60;;;10.80;;
16520;SDS011;8373;48.110;11.522;2022-10-18T18:43:16;24.50;;;13.40;;
16520;SDS011;8373;48.110;11.522;2022-10-18T18:45:48;26.97;;;15.17;;
16520;SDS011;8373;48.110;11.522;2022-10-18T18:48:16;22.03;;;12.63;;
16520;SDS011;8373;48.110;11.522;2022-10-18T18:50:43;35.57;;;10.80;;
16520;SDS011;8373;48.110;11.522;2022-10-18T18:53:14;20.40;;;10.77;;
16520;SDS011;8373;48.110;11.522;2022-10-18T18:55:41;30.37;;;10.90;;
16520;SDS011;8373;48.110;11.522;2022-10-18T18:58:08;27.43;;;12.03;;
16520;SDS011;8373;48.110;11.522;2022-10-18T19:00:37;18.03;;;10.60;;
16520;SDS011;8373;48.110;11.522;2022-10-18T19:03:05;28.30;;;12.30;;
16520;SDS011;8373;48.110;11.522;2022-10-18T19:05:33;20.03;;;10.17;;
16520;SDS011;8373;48.110;11.522;2022-10-18T19:08:02;25.87;;;11.33;;
16520;SDS011;8373;48.110;11.522;2022-10-18T19:10:29;26.53;;;10.53;;
16520;SDS011;8373;48.110;11.522;2022-10-18T19:12:56;27.27;;;10.00;;
16520;SDS011;8373;48.110;11.522;2022-10-18T19:15:23;19.43;;;8.90;;
16520;SDS011;8373;48.110;11.522;2022-10-18T19:17:52;21.10;;;10.20;;
16520;SDS011;8373;48.110;11.522;2022-10-18T19:20:20;19.53;;;10.00;;
16520;SDS011;8373;48.110;11.522;2022-10-18T19:22:48;19.63;;;10.00;;
16520;SDS011;8373;48.110;11.522;2022-10-18T19:25:15;21.17;;;9.93;;
16520;SDS011;8373;48.110;11.522;2022-10-18T19:27:42;28.87;;;11.00;;
16520;SDS011;8373;48.110;11.522;2022-10-18T19:30:10;21.23;;;10.57;;
16520;SDS011;8373;48.110;11.522;2022-10-18T19:32:37;20.50;;;10.17;;
16520;SDS011;8373;48.110;11.522;2022-10-18T19:35:06;23.47;;;10.20;;
16520;SDS011;8373;48.110;11.522;2022-10-18T19:37:33;25.53;;;10.27;;
16520;SDS011;8373;48.110;11.522;2022-10-18T19:40:00;27.33;;;10.40;;
16520;SDS011;8373;48.110;11.522;2022-10-18T19:42:27;21.37;;;10.33;;
16520;SDS011;8373;48.110;11.522;2022-10-18T19:44:54;15.47;;;9.33;;
16520;SDS011;8373;48.110;11.522;2022-10-18T19:47:21;19.80;;;10.20;;
16520;SDS011;8373;48.110;11.522;2022-10-18T19:49:48;26.03;;;10.13;;
16520;SDS011;8373;48.110;11.522;2022-10-18T19:52:18;20.10;;;10.30;;
16520;SDS011;8373;48.110;11.522;2022-10-18T19:54:46;28.57;;;9.60;;
16520;SDS011;8373;48.110;11.522;2022-10-18T19:57:13;15.77;;;9.30;;
16520;SDS011;8373;48.110;11.522;2022-10-18T19:59:40;19.50;;;10.40;;
16520;SDS011;8373;48.110;11.522;2022-10-18T20:02:09;20.83;;;8.93;;